Aérodrome :
LOGIN :

S'inscrire | Disclaimer

   EN    FR    IT 

 










Légende :    VFR   VFR Marginal   IFR   IFR Intensif   IFR Très Intensif
Visi : 
Plafond : 
>= 8 km
>= 3000ft
5 à 8 km
1000 à 3000 ft
1500m à 5 km
500 à 1000 ft
800 à 1500m
200 à 500 ft
< 800m
< 200 ft
Symboles :   Orages  Brouillard  Fortes neiges  Fortes précipitations  Vent > 20 kt
SIGMETs :   Divers  Orages  Givrage  Turbulence  Onde Orograph.  Cendres Volcan.






- Altitude de l'aérodrome : 598 ft
- Code IATA : BQH


EGKB - Biggin Hill

DERNIER METAR :
  • 151350Z VRB02KT 9000 FEW007 BKN040 02/00 Q1030

METARs EXPIRÉS :
  • 151320Z VRB03KT 8000 FEW005 BKN040 01/00 Q1030
  • 151250Z VRB03KT 8000 SCT005 BKN039 01/00 Q1030
  • 151220Z 31004KT 8000 SCT004 BKN039 01/01 Q1031
  • 151150Z VRB03KT 6000 SCT005 BKN039 01/00 Q1031
  • 151120Z 33004KT 6000 SCT005 BKN038 01/00 Q1031

TAF TAF EGKB
Valide du 15 à 12h jusqu'au 15 à 21h UTC


151057Z 1512/1521 02004KT 9999 FEW008 SCT040
PROB30
TEMPO 1512/1514 4000 BR BKN005
PROB30
TEMPO 1517/1521 7000



MET'MAP, la Météo Aéronautique d'un coup d'oeil ! - Copyright ORBIFLY Décembre 2007 - Disclaimer

ORBIFLY MET'MAP TEAM :

Programmation & Développement : Alexandra Zaïnal
Sur une idée originale de : Baudouin d'Aumeries
Assistance à la programmation : Marc-Olivier Méhu
Soutien technique & logistique : Manuel Goepfert

Contact : metmap@orbifly.com




SOURCES & CREDITS :

   NOAA